createdAt,value
2018-11-25T00:00:26.147Z,50.67
2018-11-25T00:01:29.520Z,51.27
2018-11-25T00:02:32.953Z,51.10
2018-11-25T00:03:36.318Z,51.57
2018-11-25T00:04:39.763Z,51.29
2018-11-25T00:05:43.185Z,51.11
2018-11-25T00:06:46.770Z,50.83
2018-11-25T00:07:50.366Z,51.26
2018-11-25T00:08:53.753Z,51.13
2018-11-25T00:09:57.158Z,51.63
2018-11-25T00:11:00.547Z,51.43
2018-11-25T00:12:03.955Z,51.79
2018-11-25T00:13:07.334Z,51.38
2018-11-25T00:14:10.890Z,51.25
2018-11-25T00:15:14.344Z,51.68
2018-11-25T00:16:17.882Z,51.67
2018-11-25T00:17:21.741Z,51.65
2018-11-25T00:18:25.200Z,51.48
2018-11-25T00:19:28.588Z,51.82
2018-11-25T00:20:32.038Z,51.85
2018-11-25T00:21:35.456Z,51.51
2018-11-25T00:22:38.911Z,51.18
2018-11-25T00:23:42.293Z,51.88
2018-11-25T00:24:45.839Z,51.25
2018-11-25T00:25:49.301Z,51.28
2018-11-25T00:26:52.681Z,51.51
2018-11-25T00:27:56.111Z,51.64
2018-11-25T00:28:59.495Z,51.38
2018-11-25T00:30:02.912Z,51.36
2018-11-25T00:31:09.721Z,51.22
2018-11-25T00:32:09.441Z,51.36
2018-11-25T00:33:12.851Z,51.59
2018-11-25T00:34:16.265Z,51.42
2018-11-25T00:35:19.838Z,51.80
2018-11-25T00:36:23.219Z,51.67
2018-11-25T00:37:26.595Z,52.08
2018-11-25T00:38:29.996Z,51.74
2018-11-25T00:39:33.422Z,51.64
2018-11-25T00:40:36.791Z,51.43
2018-11-25T00:41:40.194Z,51.96
2018-11-25T00:42:44.365Z,51.65
2018-11-25T00:43:47.832Z,51.49
2018-11-25T00:44:51.249Z,51.98
2018-11-25T00:45:54.648Z,51.74
2018-11-25T00:46:58.061Z,51.67
2018-11-25T00:48:01.477Z,52.14
2018-11-25T00:49:04.889Z,51.88
2018-11-25T00:50:11.040Z,51.59
2018-11-25T00:51:14.468Z,52.07
2018-11-25T00:52:17.971Z,52.54
2018-11-25T00:53:21.393Z,51.62
2018-11-25T00:54:24.849Z,52.47
2018-11-25T00:55:28.287Z,52.35
2018-11-25T00:56:31.672Z,51.76
2018-11-25T00:57:35.051Z,52.29
2018-11-25T00:58:38.466Z,51.87
2018-11-25T00:59:41.863Z,52.13
2018-11-25T01:00:45.293Z,52.33
2018-11-25T01:01:48.868Z,52.12
2018-11-25T01:02:52.319Z,51.99
2018-11-25T01:03:55.696Z,52.54
2018-11-25T01:04:59.208Z,52.15
2018-11-25T01:06:02.604Z,52.13
2018-11-25T01:07:06.170Z,51.80
2018-11-25T01:08:09.587Z,52.61
2018-11-25T01:09:12.974Z,51.90
2018-11-25T01:10:17.374Z,52.87
2018-11-25T01:11:20.856Z,52.13
2018-11-25T01:12:24.286Z,52.74
2018-11-25T01:13:27.653Z,52.70
2018-11-25T01:14:31.095Z,52.79
2018-11-25T01:15:34.514Z,52.90
2018-11-25T01:16:37.926Z,53.09
2018-11-25T01:17:41.369Z,53.38
2018-11-25T01:18:44.795Z,52.67
2018-11-25T01:19:48.818Z,52.85
2018-11-25T01:20:52.310Z,52.76
2018-11-25T01:21:55.701Z,53.03
2018-11-25T01:22:59.100Z,52.61
2018-11-25T01:24:02.478Z,52.79
2018-11-25T01:25:07.097Z,52.63
2018-11-25T01:26:10.545Z,52.87
2018-11-25T01:27:13.956Z,52.89
2018-11-25T01:28:17.355Z,52.39
2018-11-25T01:29:20.756Z,52.15
2018-11-25T01:30:24.163Z,52.73
2018-11-25T01:31:27.597Z,52.75
2018-11-25T01:32:30.990Z,52.36
2018-11-25T01:33:34.385Z,52.71
2018-11-25T01:34:37.797Z,52.37
2018-11-25T01:35:41.194Z,52.29
2018-11-25T01:36:44.611Z,52.42
2018-11-25T01:37:48.061Z,52.64
2018-11-25T01:38:51.510Z,52.66
2018-11-25T01:39:54.904Z,52.67
2018-11-25T01:40:58.335Z,52.74
2018-11-25T01:42:01.764Z,52.56
2018-11-25T01:43:05.553Z,52.87
2018-11-25T01:44:08.971Z,53.00
2018-11-25T01:45:13.574Z,52.97
2018-11-25T01:46:17.003Z,53.23
2018-11-25T01:47:20.437Z,52.59
2018-11-25T01:48:23.838Z,53.46
2018-11-25T01:49:27.291Z,52.69
2018-11-25T01:50:30.734Z,52.70
2018-11-25T01:51:34.127Z,52.97
2018-11-25T01:52:38.217Z,52.71
2018-11-25T01:53:41.639Z,53.21
2018-11-25T01:54:45.338Z,53.07
2018-11-25T01:55:48.747Z,52.53
2018-11-25T01:56:52.260Z,52.46
2018-11-25T01:57:55.778Z,53.03
2018-11-25T01:59:00.624Z,52.57
2018-11-25T02:00:02.707Z,53.15
2018-11-25T02:01:06.580Z,52.82
2018-11-25T02:02:10.057Z,52.72
2018-11-25T02:03:13.510Z,52.60
2018-11-25T02:04:16.973Z,53.21
2018-11-25T02:05:20.414Z,52.52
2018-11-25T02:06:23.814Z,52.81
2018-11-25T02:07:27.247Z,53.37
2018-11-25T02:08:30.761Z,53.34
2018-11-25T02:09:34.158Z,53.20
2018-11-25T02:10:37.697Z,53.13
2018-11-25T02:11:41.069Z,52.98
2018-11-25T02:12:44.537Z,53.08
2018-11-25T02:13:48.011Z,54.13
2018-11-25T02:14:51.406Z,53.16
2018-11-25T02:15:54.796Z,53.40
2018-11-25T02:16:58.225Z,53.46
2018-11-25T02:18:01.666Z,53.11
2018-11-25T02:19:05.099Z,53.39
2018-11-25T02:20:13.878Z,53.16
2018-11-25T02:21:17.309Z,52.93
2018-11-25T02:22:20.748Z,53.37
2018-11-25T02:23:24.394Z,53.46
2018-11-25T02:24:27.807Z,53.25
2018-11-25T02:25:31.313Z,53.39
2018-11-25T02:26:34.819Z,53.35
2018-11-25T02:27:38.202Z,52.94
2018-11-25T02:28:41.584Z,53.09
2018-11-25T02:29:45.082Z,53.28
2018-11-25T02:30:48.516Z,52.92
2018-11-25T02:31:51.901Z,52.81
2018-11-25T02:32:55.315Z,52.62
2018-11-25T02:33:58.713Z,53.04
2018-11-25T02:35:02.211Z,53.15
2018-11-25T02:36:06.011Z,52.71
2018-11-25T02:37:09.390Z,53.01
2018-11-25T02:38:12.865Z,52.54
2018-11-25T02:39:16.270Z,52.76
2018-11-25T02:40:19.724Z,52.83
2018-11-25T02:41:23.154Z,52.69
2018-11-25T02:42:26.545Z,52.64
2018-11-25T02:43:29.909Z,53.13
2018-11-25T02:44:33.333Z,53.14
2018-11-25T02:45:36.749Z,52.60
2018-11-25T02:46:40.146Z,52.44
2018-11-25T02:47:43.602Z,52.60
2018-11-25T02:48:47.023Z,53.17
2018-11-25T02:49:50.447Z,53.00
2018-11-25T02:50:53.887Z,53.18
2018-11-25T02:51:57.313Z,52.44
2018-11-25T02:53:01.997Z,53.17
2018-11-25T02:54:05.520Z,53.02
2018-11-25T02:55:09.008Z,53.28
2018-11-25T02:56:12.445Z,52.62
2018-11-25T02:57:19.987Z,52.55
2018-11-25T02:58:23.415Z,52.92
2018-11-25T02:59:26.845Z,53.12
2018-11-25T03:00:30.245Z,52.58
2018-11-25T03:01:33.667Z,53.14
2018-11-25T03:02:37.107Z,53.09
2018-11-25T03:03:40.512Z,52.67
2018-11-25T03:04:43.903Z,53.40
2018-11-25T03:05:47.335Z,53.46
2018-11-25T03:06:50.803Z,53.08
2018-11-25T03:07:54.244Z,52.99
2018-11-25T03:08:57.641Z,53.49
2018-11-25T03:10:01.282Z,53.12
2018-11-25T03:11:05.057Z,53.33
2018-11-25T03:12:08.511Z,52.78
2018-11-25T03:13:11.930Z,53.31
2018-11-25T03:14:15.343Z,53.32
2018-11-25T03:15:19.046Z,53.51
2018-11-25T03:16:22.441Z,52.86
2018-11-25T03:17:25.847Z,53.06
2018-11-25T03:18:29.223Z,53.13
2018-11-25T03:19:32.604Z,53.22
2018-11-25T03:20:36.045Z,52.88
2018-11-25T03:21:39.445Z,53.25
2018-11-25T03:22:42.839Z,53.47
2018-11-25T03:23:46.313Z,53.08
2018-11-25T03:24:49.718Z,53.22
2018-11-25T03:25:53.130Z,52.97
2018-11-25T03:26:56.566Z,53.34
2018-11-25T03:28:00.032Z,53.67
2018-11-25T03:29:03.480Z,53.30
2018-11-25T03:30:13.224Z,53.54
2018-11-25T03:31:16.668Z,53.17
2018-11-25T03:32:20.179Z,53.19
2018-11-25T03:33:23.575Z,53.63
2018-11-25T03:34:26.931Z,53.41
2018-11-25T03:35:30.377Z,52.89
2018-11-25T03:36:33.791Z,53.73
2018-11-25T03:37:37.255Z,53.62
2018-11-25T03:38:40.687Z,53.51
2018-11-25T03:39:44.108Z,53.68
2018-11-25T03:40:47.528Z,53.18
2018-11-25T03:41:50.953Z,51.95
2018-11-25T03:42:54.365Z,51.51
2018-11-25T03:43:57.770Z,50.98
2018-11-25T03:45:01.156Z,50.45
2018-11-25T03:46:04.592Z,50.23
2018-11-25T03:47:08.064Z,50.19
2018-11-25T03:48:11.532Z,49.86
2018-11-25T03:49:15.041Z,50.04
2018-11-25T03:50:18.453Z,50.34
2018-11-25T03:51:21.867Z,50.24
2018-11-25T03:52:25.412Z,49.67
2018-11-25T03:53:28.848Z,49.64
2018-11-25T03:54:32.278Z,49.04
2018-11-25T03:55:35.701Z,50.00
2018-11-25T03:56:39.139Z,49.97
2018-11-25T03:57:42.567Z,49.78
2018-11-25T03:58:46.049Z,49.61
2018-11-25T03:59:49.462Z,49.64
2018-11-25T04:00:52.875Z,49.67
2018-11-25T04:01:56.310Z,50.42
2018-11-25T04:02:59.785Z,50.49
2018-11-25T04:04:03.193Z,50.58
2018-11-25T04:05:08.044Z,51.05
2018-11-25T04:06:11.474Z,50.79
2018-11-25T04:07:14.886Z,51.24
2018-11-25T04:08:18.305Z,50.99
2018-11-25T04:09:21.721Z,51.39
2018-11-25T04:10:25.173Z,51.66
2018-11-25T04:11:28.598Z,51.34
2018-11-25T04:12:31.975Z,51.73
2018-11-25T04:13:35.361Z,51.54
2018-11-25T04:14:38.771Z,51.86
2018-11-25T04:15:42.190Z,52.13
2018-11-25T04:16:45.613Z,51.84
2018-11-25T04:17:49.356Z,52.32
2018-11-25T04:18:52.831Z,52.69
2018-11-25T04:19:56.269Z,52.74
2018-11-25T04:20:59.806Z,52.66
2018-11-25T04:22:03.242Z,53.37
2018-11-25T04:23:06.767Z,53.48
2018-11-25T04:24:10.201Z,53.66
2018-11-25T04:25:14.122Z,53.82
2018-11-25T04:26:17.591Z,53.64
2018-11-25T04:27:21.046Z,53.81
2018-11-25T04:28:24.456Z,53.49
2018-11-25T04:29:27.853Z,53.50
2018-11-25T04:30:31.229Z,54.02
2018-11-25T04:31:34.719Z,53.64
2018-11-25T04:32:38.151Z,54.34
2018-11-25T04:33:41.660Z,54.41
2018-11-25T04:34:45.131Z,54.49
2018-11-25T04:35:48.627Z,54.24
2018-11-25T04:36:52.084Z,54.10
2018-11-25T04:37:55.473Z,54.09
2018-11-25T04:38:58.882Z,54.47
2018-11-25T04:40:02.323Z,54.08
2018-11-25T04:41:05.913Z,53.80
2018-11-25T04:42:09.370Z,54.46
2018-11-25T04:43:12.766Z,54.90
2018-11-25T04:44:16.241Z,54.15
2018-11-25T04:45:19.638Z,54.93
2018-11-25T04:46:23.056Z,54.24
2018-11-25T04:47:26.461Z,54.57
2018-11-25T04:48:29.881Z,54.99
2018-11-25T04:49:33.254Z,54.83
2018-11-25T04:50:36.693Z,54.34
2018-11-25T04:51:40.132Z,55.32
2018-11-25T04:52:43.580Z,55.33
2018-11-25T04:53:47.015Z,54.55
2018-11-25T04:54:50.398Z,54.53
2018-11-25T04:55:53.774Z,55.05
2018-11-25T04:56:57.173Z,55.00
2018-11-25T04:58:00.594Z,55.14
2018-11-25T04:59:04.040Z,54.60
2018-11-25T05:00:12.163Z,54.73
2018-11-25T05:01:15.587Z,55.35
2018-11-25T05:02:19.099Z,55.01
2018-11-25T05:03:22.627Z,54.70
2018-11-25T05:04:26.020Z,54.80
2018-11-25T05:05:29.452Z,55.00
2018-11-25T05:06:32.857Z,55.51
2018-11-25T05:07:36.309Z,55.33
2018-11-25T05:08:39.704Z,55.23
2018-11-25T05:09:43.177Z,55.72
2018-11-25T05:10:46.618Z,55.13
2018-11-25T05:11:50.036Z,55.70
2018-11-25T05:12:53.475Z,55.73
2018-11-25T05:13:57.012Z,55.67
2018-11-25T05:15:00.367Z,55.55
2018-11-25T05:16:03.905Z,55.93
2018-11-25T05:17:07.373Z,55.59
2018-11-25T05:18:10.801Z,55.36
2018-11-25T05:19:14.192Z,55.33
2018-11-25T05:20:18.345Z,55.21
2018-11-25T05:21:21.775Z,55.29
2018-11-25T05:22:25.360Z,56.10
2018-11-25T05:23:28.793Z,55.43
2018-11-25T05:24:32.189Z,55.49
2018-11-25T05:25:35.675Z,55.69
2018-11-25T05:26:39.057Z,55.76
2018-11-25T05:27:42.592Z,56.20
2018-11-25T05:28:46.106Z,55.62
2018-11-25T05:29:49.503Z,55.66
2018-11-25T05:30:53.015Z,55.96
2018-11-25T05:31:56.411Z,56.65
2018-11-25T05:32:59.834Z,56.45
2018-11-25T05:34:03.226Z,56.68
2018-11-25T05:35:08.297Z,56.64
2018-11-25T05:36:11.757Z,56.00
2018-11-25T05:37:15.212Z,56.68
2018-11-25T05:38:18.629Z,56.41
2018-11-25T05:39:22.062Z,56.36
2018-11-25T05:40:25.503Z,57.08
2018-11-25T05:41:28.901Z,56.82
2018-11-25T05:42:32.427Z,56.72
2018-11-25T05:43:35.850Z,56.95
2018-11-25T05:44:39.275Z,56.92
2018-11-25T05:45:42.648Z,56.35
2018-11-25T05:46:46.105Z,56.93
2018-11-25T05:47:49.586Z,56.78
2018-11-25T05:48:53.024Z,56.73
2018-11-25T05:49:56.437Z,56.80
2018-11-25T05:50:59.861Z,56.19
2018-11-25T05:52:03.308Z,56.61
2018-11-25T05:53:06.713Z,56.90
2018-11-25T05:54:10.115Z,57.33
2018-11-25T05:55:14.154Z,57.36
2018-11-25T05:56:17.557Z,56.63
2018-11-25T05:57:20.966Z,57.17
2018-11-25T05:58:24.589Z,56.75
2018-11-25T05:59:28.008Z,56.72
2018-11-25T06:00:33.319Z,57.21
2018-11-25T06:01:36.734Z,56.85
2018-11-25T06:02:40.163Z,57.23
2018-11-25T06:03:43.598Z,56.67
2018-11-25T06:04:46.956Z,57.23
2018-11-25T06:05:50.372Z,57.35
2018-11-25T06:06:53.764Z,56.83
2018-11-25T06:07:57.147Z,56.86
2018-11-25T06:09:00.590Z,56.92
2018-11-25T06:10:04.116Z,56.96
2018-11-25T06:11:07.541Z,56.89
2018-11-25T06:12:10.970Z,56.82
2018-11-25T06:13:14.370Z,57.46
2018-11-25T06:14:17.768Z,56.84
2018-11-25T06:15:21.197Z,57.30
2018-11-25T06:16:24.618Z,56.83
2018-11-25T06:17:28.031Z,57.62
2018-11-25T06:18:31.407Z,57.41
2018-11-25T06:19:34.820Z,57.20
2018-11-25T06:20:38.187Z,57.25
2018-11-25T06:21:41.605Z,56.99
2018-11-25T06:22:45.467Z,57.71
2018-11-25T06:23:48.854Z,56.97
2018-11-25T06:24:52.255Z,57.13
2018-11-25T06:25:55.677Z,57.26
2018-11-25T06:26:59.132Z,57.30
2018-11-25T06:28:02.603Z,58.03
2018-11-25T06:29:06.309Z,57.73
2018-11-25T06:30:12.806Z,58.02
2018-11-25T06:31:16.845Z,57.95
2018-11-25T06:32:20.457Z,57.76
2018-11-25T06:33:23.865Z,58.02
2018-11-25T06:34:27.242Z,58.50
2018-11-25T06:35:30.646Z,58.06
2018-11-25T06:36:34.003Z,57.76
2018-11-25T06:37:37.423Z,58.15
2018-11-25T06:38:40.784Z,57.92
2018-11-25T06:39:44.169Z,58.51
2018-11-25T06:40:47.699Z,57.97
2018-11-25T06:41:51.089Z,58.09
2018-11-25T06:42:54.489Z,58.24
2018-11-25T06:43:57.916Z,58.42
2018-11-25T06:45:01.326Z,58.69
2018-11-25T06:46:07.299Z,58.39
2018-11-25T06:47:10.720Z,58.64
2018-11-25T06:48:14.177Z,58.56
2018-11-25T06:49:17.570Z,58.31
2018-11-25T06:50:21.005Z,58.04
2018-11-25T06:51:24.467Z,58.73
2018-11-25T06:52:27.878Z,58.74
2018-11-25T06:53:31.287Z,58.71
2018-11-25T06:54:34.717Z,58.29
2018-11-25T06:55:38.847Z,58.80
2018-11-25T06:56:42.302Z,58.29
2018-11-25T06:57:45.961Z,58.27
2018-11-25T06:58:49.381Z,59.06
2018-11-25T06:59:52.791Z,58.37
2018-11-25T07:01:03.139Z,58.62
2018-11-25T07:02:14.907Z,58.90
2018-11-25T07:03:18.306Z,58.74
2018-11-25T07:04:21.728Z,58.68
2018-11-25T07:05:25.148Z,59.00
2018-11-25T07:06:28.843Z,58.80
2018-11-25T07:07:32.247Z,58.68
2018-11-25T07:08:35.650Z,59.04
2018-11-25T07:09:39.092Z,58.75
2018-11-25T07:10:42.506Z,58.54
2018-11-25T07:11:45.886Z,58.68
2018-11-25T07:12:50.521Z,58.81
2018-11-25T07:13:53.936Z,58.77
2018-11-25T07:14:57.376Z,59.11
2018-11-25T07:16:00.742Z,59.25
2018-11-25T07:17:04.119Z,59.18
2018-11-25T07:18:07.526Z,59.27
2018-11-25T07:19:10.996Z,59.13
2018-11-25T07:20:15.539Z,59.80
2018-11-25T07:21:19.011Z,59.86
2018-11-25T07:22:22.387Z,60.01
2018-11-25T07:23:25.742Z,59.80
2018-11-25T07:24:29.222Z,59.96
2018-11-25T07:25:32.624Z,59.38
2018-11-25T07:26:36.035Z,59.36
2018-11-25T07:27:39.499Z,59.49
2018-11-25T07:28:42.938Z,59.79
2018-11-25T07:29:46.406Z,59.13
2018-11-25T07:30:49.895Z,59.32
2018-11-25T07:31:53.655Z,59.93
2018-11-25T07:32:57.257Z,59.40
2018-11-25T07:34:00.628Z,59.94
2018-11-25T07:35:04.058Z,59.84
2018-11-25T07:36:07.564Z,59.79
2018-11-25T07:37:10.959Z,59.82
2018-11-25T07:38:14.406Z,59.42
2018-11-25T07:39:17.846Z,59.49
2018-11-25T07:40:22.076Z,59.94
2018-11-25T07:41:25.490Z,59.90
2018-11-25T07:42:28.880Z,59.93
2018-11-25T07:43:32.301Z,59.87
2018-11-25T07:44:37.559Z,59.75
2018-11-25T07:45:46.163Z,59.96
2018-11-25T07:46:50.478Z,59.48
2018-11-25T07:47:54.217Z,59.43
2018-11-25T07:48:57.786Z,59.67
2018-11-25T07:50:01.422Z,59.94
2018-11-25T07:51:06.452Z,60.34
2018-11-25T07:52:12.484Z,60.41
2018-11-25T07:53:17.067Z,60.19
2018-11-25T07:54:22.541Z,59.61
2018-11-25T07:55:29.445Z,59.49
2018-11-25T07:56:32.915Z,59.96
2018-11-25T07:57:36.362Z,59.49
2018-11-25T07:58:42.266Z,59.34
2018-11-25T07:59:47.175Z,59.51
2018-11-25T08:00:54.887Z,59.39
2018-11-25T08:02:00.782Z,59.49
2018-11-25T08:03:05.073Z,60.00
2018-11-25T08:04:10.044Z,59.89
2018-11-25T08:05:17.685Z,60.17
2018-11-25T08:06:23.684Z,59.54
2018-11-25T08:07:30.185Z,59.58
2018-11-25T08:08:34.563Z,59.93
2018-11-25T08:09:40.569Z,59.49
2018-11-25T08:10:46.170Z,60.35
2018-11-25T08:11:52.484Z,59.23
2018-11-25T08:12:58.427Z,59.64
2018-11-25T08:14:01.835Z,59.46
2018-11-25T08:15:06.054Z,59.53
2018-11-25T08:16:09.548Z,59.53
2018-11-25T08:17:13.029Z,59.85
2018-11-25T08:18:16.518Z,59.52
2018-11-25T08:19:19.937Z,59.54
2018-11-25T08:20:23.565Z,60.18
2018-11-25T08:21:27.004Z,59.91
2018-11-25T08:22:30.411Z,59.80
2018-11-25T08:23:33.836Z,59.68
2018-11-25T08:24:37.223Z,60.11
2018-11-25T08:25:40.660Z,60.13
2018-11-25T08:26:44.105Z,60.25
2018-11-25T08:27:47.656Z,59.76
2018-11-25T08:28:51.058Z,60.07
2018-11-25T08:29:54.478Z,59.79
2018-11-25T08:30:57.877Z,59.55
2018-11-25T08:32:01.278Z,59.84
2018-11-25T08:33:04.798Z,60.17
2018-11-25T08:34:08.198Z,59.44
2018-11-25T08:35:12.246Z,59.94
2018-11-25T08:36:15.651Z,59.70
2018-11-25T08:37:19.125Z,60.23
2018-11-25T08:38:22.521Z,60.11
2018-11-25T08:39:25.980Z,59.67
2018-11-25T08:40:29.518Z,59.75
2018-11-25T08:41:32.913Z,60.40
2018-11-25T08:42:36.432Z,59.60
2018-11-25T08:43:39.868Z,59.71
2018-11-25T08:44:43.345Z,59.58
2018-11-25T08:45:46.787Z,59.51
2018-11-25T08:46:50.391Z,59.17
2018-11-25T08:47:53.833Z,59.40
2018-11-25T08:48:57.262Z,58.77
2018-11-25T08:50:00.745Z,56.83
2018-11-25T08:51:04.437Z,57.84
2018-11-25T08:52:07.882Z,57.62
2018-11-25T08:53:11.336Z,55.70
2018-11-25T08:54:14.856Z,55.37
2018-11-25T08:55:19.462Z,55.81
2018-11-25T08:56:22.873Z,55.84
2018-11-25T08:57:26.311Z,54.88
2018-11-25T08:58:29.739Z,55.06
2018-11-25T08:59:33.203Z,54.42
2018-11-25T09:00:36.630Z,53.68
2018-11-25T09:01:40.035Z,53.98
2018-11-25T09:02:43.467Z,53.99
2018-11-25T09:03:47.446Z,53.85
2018-11-25T09:04:50.886Z,53.72
2018-11-25T09:05:54.303Z,54.07
2018-11-25T09:06:57.703Z,53.89
2018-11-25T09:08:01.108Z,53.46
2018-11-25T09:09:06.361Z,53.43
2018-11-25T09:10:12.102Z,53.15
2018-11-25T09:11:15.564Z,52.55
2018-11-25T09:12:18.988Z,53.13
2018-11-25T09:13:22.418Z,52.95
2018-11-25T09:14:25.851Z,53.61
2018-11-25T09:15:30.600Z,53.40
2018-11-25T09:16:34.016Z,53.12
2018-11-25T09:17:37.411Z,53.68
2018-11-25T09:18:40.816Z,53.36
2018-11-25T09:19:44.221Z,53.28
2018-11-25T09:20:47.664Z,52.90
2018-11-25T09:21:51.114Z,52.59
2018-11-25T09:22:54.513Z,52.37
2018-11-25T09:23:58.004Z,52.62
2018-11-25T09:25:01.404Z,53.10
2018-11-25T09:26:04.913Z,53.42
2018-11-25T09:27:08.309Z,52.84
2018-11-25T09:28:11.679Z,52.87
2018-11-25T09:29:15.103Z,52.86
2018-11-25T09:30:22.756Z,53.00
2018-11-25T09:31:26.194Z,53.21
2018-11-25T09:32:29.615Z,53.70
2018-11-25T09:33:33.048Z,53.70
2018-11-25T09:34:36.431Z,53.72
2018-11-25T09:35:39.840Z,53.64
2018-11-25T09:36:43.280Z,53.15
2018-11-25T09:37:46.761Z,53.66
2018-11-25T09:38:50.207Z,53.13
2018-11-25T09:39:53.683Z,53.58
2018-11-25T09:40:59.316Z,53.17
2018-11-25T09:42:00.614Z,53.19
2018-11-25T09:43:04.134Z,53.32
2018-11-25T09:44:07.568Z,53.27
2018-11-25T09:45:14.245Z,53.24
2018-11-25T09:46:17.672Z,53.30
2018-11-25T09:47:21.119Z,53.00
2018-11-25T09:48:25.142Z,52.48
2018-11-25T09:49:28.555Z,52.58
2018-11-25T09:50:31.959Z,52.81
2018-11-25T09:51:35.371Z,52.51
2018-11-25T09:52:38.933Z,52.92
2018-11-25T09:53:42.349Z,53.17
2018-11-25T09:54:45.872Z,52.59
2018-11-25T09:55:49.353Z,52.53
2018-11-25T09:56:53.196Z,53.00
2018-11-25T09:57:58.073Z,53.05
2018-11-25T09:59:01.588Z,53.56
2018-11-25T10:00:37.080Z,53.46
2018-11-25T10:01:40.524Z,52.97
2018-11-25T10:02:43.945Z,52.83
2018-11-25T10:03:47.406Z,52.95
2018-11-25T10:04:50.868Z,52.77
2018-11-25T10:05:54.293Z,52.40
2018-11-25T10:06:57.705Z,53.03
2018-11-25T10:08:01.124Z,52.99
2018-11-25T10:09:06.517Z,52.97
2018-11-25T10:10:13.406Z,53.14
2018-11-25T10:11:16.918Z,52.62
2018-11-25T10:12:20.301Z,52.60
2018-11-25T10:13:24.327Z,52.51
2018-11-25T10:14:27.738Z,52.25
2018-11-25T10:15:31.460Z,51.98
2018-11-25T10:16:34.909Z,52.52
2018-11-25T10:17:38.389Z,52.29
2018-11-25T10:18:43.409Z,52.15
2018-11-25T10:19:46.927Z,52.52
2018-11-25T10:20:51.046Z,52.80
2018-11-25T10:21:54.486Z,52.38
2018-11-25T10:22:57.875Z,52.45
2018-11-25T10:24:01.267Z,52.73
2018-11-25T10:25:05.116Z,52.55
2018-11-25T10:26:08.702Z,53.15
2018-11-25T10:27:12.190Z,53.07
2018-11-25T10:28:15.634Z,52.98
2018-11-25T10:29:19.031Z,52.86
2018-11-25T10:30:25.690Z,53.35
2018-11-25T10:31:29.728Z,52.64
2018-11-25T10:32:33.417Z,52.23
2018-11-25T10:33:36.807Z,52.93
2018-11-25T10:34:40.206Z,52.57
2018-11-25T10:35:43.626Z,52.60
2018-11-25T10:36:47.057Z,52.60
2018-11-25T10:37:50.422Z,52.35
2018-11-25T10:38:53.802Z,51.92
2018-11-25T10:39:57.215Z,52.35
2018-11-25T10:41:00.617Z,51.49
2018-11-25T10:42:04.963Z,51.59
2018-11-25T10:43:08.436Z,51.74
2018-11-25T10:44:11.898Z,50.83
2018-11-25T10:45:17.222Z,50.20
2018-11-25T10:46:20.652Z,50.18
2018-11-25T10:47:24.170Z,49.70
2018-11-25T10:48:27.621Z,49.72
2018-11-25T10:49:31.006Z,48.92
2018-11-25T10:50:34.438Z,48.59
2018-11-25T10:51:37.881Z,49.09
2018-11-25T10:52:41.387Z,48.09
2018-11-25T10:53:44.816Z,48.59
2018-11-25T10:54:48.328Z,48.21
2018-11-25T10:55:51.824Z,48.20
2018-11-25T10:56:55.285Z,48.06
2018-11-25T10:57:58.735Z,48.03
2018-11-25T10:59:02.238Z,48.18
2018-11-25T11:00:21.013Z,48.17
2018-11-25T11:01:29.634Z,48.10
2018-11-25T11:02:38.419Z,48.07
2018-11-25T11:03:47.124Z,47.91
2018-11-25T11:04:55.941Z,48.41
2018-11-25T11:06:04.787Z,47.97
2018-11-25T11:07:13.911Z,47.45
2018-11-25T11:08:17.494Z,47.74
2018-11-25T11:09:20.864Z,47.41
2018-11-25T11:10:24.259Z,47.35
2018-11-25T11:11:27.678Z,46.60
2018-11-25T11:12:31.143Z,47.08
2018-11-25T11:13:34.630Z,46.86
2018-11-25T11:14:38.018Z,47.33
2018-11-25T11:15:41.462Z,46.46
2018-11-25T11:16:44.912Z,47.03
2018-11-25T11:17:48.463Z,47.07
2018-11-25T11:18:51.916Z,46.88
2018-11-25T11:19:55.349Z,46.47
2018-11-25T11:20:58.743Z,46.71
2018-11-25T11:22:02.187Z,46.18
2018-11-25T11:23:06.130Z,46.85
2018-11-25T11:24:09.634Z,46.65
2018-11-25T11:25:13.094Z,46.64
2018-11-25T11:26:27.065Z,46.05
2018-11-25T11:27:30.500Z,46.60
2018-11-25T11:28:33.995Z,46.44
2018-11-25T11:29:37.456Z,46.55
2018-11-25T11:30:40.871Z,46.11
2018-11-25T11:31:44.359Z,46.53
2018-11-25T11:32:49.529Z,46.48
2018-11-25T11:33:53.126Z,46.10
2018-11-25T11:34:56.619Z,46.86
2018-11-25T11:36:00.322Z,46.32
2018-11-25T11:37:04.141Z,46.36
2018-11-25T11:38:07.734Z,46.67
2018-11-25T11:39:11.346Z,46.75
2018-11-25T11:40:15.715Z,46.73
2018-11-25T11:41:19.178Z,46.79
2018-11-25T11:42:28.547Z,45.86
2018-11-25T11:43:26.094Z,45.94
2018-11-25T11:44:29.516Z,46.54
2018-11-25T11:45:32.961Z,46.07
2018-11-25T11:46:36.375Z,46.34
2018-11-25T11:47:39.816Z,46.28
2018-11-25T11:48:43.244Z,46.22
2018-11-25T11:49:46.727Z,45.94
2018-11-25T11:50:50.162Z,46.59
2018-11-25T11:51:53.638Z,46.25
2018-11-25T11:52:57.072Z,46.74
2018-11-25T11:54:00.486Z,46.31
2018-11-25T11:55:03.976Z,46.31
2018-11-25T11:56:07.386Z,46.93
2018-11-25T11:57:10.755Z,46.80
2018-11-25T11:58:14.187Z,46.46
2018-11-25T11:59:17.599Z,46.19
2018-11-25T12:00:27.306Z,46.52
2018-11-25T12:01:30.733Z,46.57
2018-11-25T12:02:34.231Z,46.15
2018-11-25T12:03:37.701Z,46.26
2018-11-25T12:04:41.142Z,46.27
2018-11-25T12:05:44.825Z,46.71
2018-11-25T12:06:48.282Z,46.81
2018-11-25T12:07:51.730Z,46.74
2018-11-25T12:08:55.133Z,46.92
2018-11-25T12:09:58.569Z,47.06
2018-11-25T12:11:02.029Z,46.57
2018-11-25T12:12:05.494Z,46.64
2018-11-25T12:13:08.930Z,46.92
2018-11-25T12:14:12.393Z,46.16
2018-11-25T12:15:30.229Z,46.90
2018-11-25T12:16:27.409Z,45.99
2018-11-25T12:17:30.855Z,46.30
2018-11-25T12:18:34.293Z,46.18
2018-11-25T12:19:37.699Z,46.42
2018-11-25T12:20:41.216Z,46.51
2018-11-25T12:21:44.752Z,46.39
2018-11-25T12:22:48.902Z,46.33
2018-11-25T12:23:52.308Z,46.33
2018-11-25T12:24:55.717Z,46.74
2018-11-25T12:25:59.122Z,47.14
2018-11-25T12:27:02.617Z,46.46
2018-11-25T12:28:06.716Z,46.79
2018-11-25T12:29:10.120Z,46.93
2018-11-25T12:30:14.731Z,45.73
2018-11-25T12:31:18.193Z,46.16
2018-11-25T12:32:21.597Z,45.79
2018-11-25T12:33:25.038Z,45.97
2018-11-25T12:34:28.468Z,45.96
2018-11-25T12:35:31.894Z,45.47
2018-11-25T12:36:35.287Z,46.13
2018-11-25T12:37:38.758Z,45.97
2018-11-25T12:38:42.258Z,46.52
2018-11-25T12:39:45.693Z,46.05
2018-11-25T12:40:49.300Z,46.22
2018-11-25T12:41:52.692Z,46.06
2018-11-25T12:42:58.477Z,46.63
2018-11-25T12:44:01.961Z,46.21
2018-11-25T12:45:06.478Z,47.10
2018-11-25T12:46:09.932Z,46.97
2018-11-25T12:47:13.365Z,46.71
2018-11-25T12:48:16.901Z,47.24
2018-11-25T12:49:20.350Z,47.14
2018-11-25T12:50:25.807Z,46.98
2018-11-25T12:51:29.674Z,47.12
2018-11-25T12:52:33.224Z,46.79
2018-11-25T12:53:36.731Z,47.45
2018-11-25T12:54:40.213Z,46.90
2018-11-25T12:55:43.869Z,47.40
2018-11-25T12:56:51.825Z,47.37
2018-11-25T12:57:50.914Z,47.36
2018-11-25T12:58:54.369Z,47.69
2018-11-25T12:59:57.847Z,47.13
2018-11-25T13:01:01.277Z,47.19
2018-11-25T13:02:04.750Z,46.69
2018-11-25T13:03:10.495Z,46.73
2018-11-25T13:04:13.965Z,47.04
2018-11-25T13:05:17.371Z,47.12
2018-11-25T13:06:20.849Z,46.80
2018-11-25T13:07:24.257Z,46.66
2018-11-25T13:08:27.712Z,46.69
2018-11-25T13:09:31.159Z,47.48
2018-11-25T13:10:34.689Z,46.72
2018-11-25T13:11:38.113Z,47.25
2018-11-25T13:12:41.550Z,47.38
2018-11-25T13:13:45.006Z,47.47
2018-11-25T13:14:49.394Z,47.32
2018-11-25T13:15:52.843Z,47.80
2018-11-25T13:16:56.203Z,47.31
2018-11-25T13:17:59.591Z,47.38
2018-11-25T13:19:03.023Z,47.34
2018-11-25T13:20:09.446Z,47.05
2018-11-25T13:21:12.864Z,47.12
2018-11-25T13:22:16.368Z,47.37
2018-11-25T13:23:19.800Z,47.08
2018-11-25T13:24:23.173Z,47.72
2018-11-25T13:25:26.648Z,47.21
2018-11-25T13:26:30.116Z,47.27
2018-11-25T13:27:33.657Z,47.37
2018-11-25T13:28:37.057Z,47.57
2018-11-25T13:29:40.485Z,47.45
2018-11-25T13:30:44.850Z,47.57
2018-11-25T13:31:48.227Z,47.90
2018-11-25T13:32:52.916Z,47.38
2018-11-25T13:33:56.471Z,47.18
2018-11-25T13:35:00.071Z,47.58
2018-11-25T13:36:04.087Z,47.27
2018-11-25T13:37:07.509Z,47.58
2018-11-25T13:38:12.532Z,47.35
2018-11-25T13:39:16.389Z,47.58
2018-11-25T13:40:19.858Z,47.09
2018-11-25T13:41:23.287Z,47.06